createdAt,value
2023-01-25T00:00:26.479Z,1030.71
2023-01-25T00:01:26.478Z,1030.69
2023-01-25T00:02:26.508Z,1030.71
2023-01-25T00:03:26.524Z,1030.69
2023-01-25T00:04:26.500Z,1030.69
2023-01-25T00:05:26.431Z,1030.65
2023-01-25T00:06:26.408Z,1030.68
2023-01-25T00:07:26.414Z,1030.64
2023-01-25T00:08:26.408Z,1030.65
2023-01-25T00:09:26.388Z,1030.63
2023-01-25T00:10:26.383Z,1030.65
2023-01-25T00:11:26.400Z,1030.61
2023-01-25T00:12:26.350Z,1030.61
2023-01-25T00:13:26.373Z,1030.63
2023-01-25T00:14:26.335Z,1030.62
2023-01-25T00:15:26.326Z,1030.61
2023-01-25T00:16:26.429Z,1030.60
2023-01-25T00:17:26.331Z,1030.59
2023-01-25T00:18:26.301Z,1030.57
2023-01-25T00:19:26.289Z,1030.57
2023-01-25T00:20:26.271Z,1030.60
2023-01-25T00:21:26.264Z,1030.56
2023-01-25T00:22:26.247Z,1030.58
2023-01-25T00:23:26.253Z,1030.56
2023-01-25T00:24:26.374Z,1030.55
2023-01-25T00:25:26.220Z,1030.55
2023-01-25T00:26:26.210Z,1030.53
2023-01-25T00:27:26.203Z,1030.55
2023-01-25T00:28:26.191Z,1030.56
2023-01-25T00:29:26.178Z,1030.51
2023-01-25T00:30:26.161Z,1030.53
2023-01-25T00:31:26.300Z,1030.53
2023-01-25T00:32:26.354Z,1030.51
2023-01-25T00:33:26.144Z,1030.52
2023-01-25T00:34:26.144Z,1030.50
2023-01-25T00:35:26.114Z,1030.53
2023-01-25T00:36:26.090Z,1030.52
2023-01-25T00:37:26.092Z,1030.49
2023-01-25T00:38:26.085Z,1030.46
2023-01-25T00:39:26.079Z,1030.49
2023-01-25T00:40:26.054Z,1030.47
2023-01-25T00:41:26.064Z,1030.45
2023-01-25T00:42:26.032Z,1030.44
2023-01-25T00:43:26.044Z,1030.40
2023-01-25T00:44:26.011Z,1030.40
2023-01-25T00:45:26.006Z,1030.40
2023-01-25T00:46:26.011Z,1030.38
2023-01-25T00:47:25.981Z,1030.37
2023-01-25T00:48:25.983Z,1030.42
2023-01-25T00:49:25.961Z,1030.38
2023-01-25T00:50:25.969Z,1030.40
2023-01-25T00:51:25.931Z,1030.39
2023-01-25T00:52:25.941Z,1030.35
2023-01-25T00:53:25.937Z,1030.34
2023-01-25T00:54:25.913Z,1030.36
2023-01-25T00:55:25.902Z,1030.35
2023-01-25T00:56:25.905Z,1030.34
2023-01-25T00:57:25.873Z,1030.34
2023-01-25T00:58:26.133Z,1030.36
2023-01-25T00:59:25.852Z,1030.29
2023-01-25T01:00:25.843Z,1030.28
2023-01-25T01:01:25.902Z,1030.29
2023-01-25T01:02:25.830Z,1030.28
2023-01-25T01:03:25.838Z,1030.28
2023-01-25T01:04:25.849Z,1030.29
2023-01-25T01:05:25.794Z,1030.29
2023-01-25T01:06:25.783Z,1030.28
2023-01-25T01:07:25.779Z,1030.31
2023-01-25T01:08:25.773Z,1030.32
2023-01-25T01:09:25.743Z,1030.29
2023-01-25T01:10:25.746Z,1030.28
2023-01-25T01:11:25.732Z,1030.29
2023-01-25T01:12:25.722Z,1030.23
2023-01-25T01:13:25.733Z,1030.27
2023-01-25T01:14:25.713Z,1030.26
2023-01-25T01:15:25.698Z,1030.23
2023-01-25T01:16:25.733Z,1030.24
2023-01-25T01:17:25.669Z,1030.23
2023-01-25T01:18:25.663Z,1030.24
2023-01-25T01:19:25.643Z,1030.19
2023-01-25T01:20:25.642Z,1030.19
2023-01-25T01:21:25.622Z,1030.16
2023-01-25T01:22:25.632Z,1030.16
2023-01-25T01:23:25.613Z,1030.14
2023-01-25T01:24:25.637Z,1030.18
2023-01-25T01:25:25.583Z,1030.18
2023-01-25T01:26:25.575Z,1030.17
2023-01-25T01:27:25.555Z,1030.21
2023-01-25T01:28:25.564Z,1030.20
2023-01-25T01:29:25.535Z,1030.19
2023-01-25T01:30:25.535Z,1030.19
2023-01-25T01:31:25.577Z,1030.22
2023-01-25T01:32:25.638Z,1030.21
2023-01-25T01:33:25.503Z,1030.22
2023-01-25T01:34:25.508Z,1030.21
2023-01-25T01:35:25.474Z,1030.20
2023-01-25T01:36:25.468Z,1030.20
2023-01-25T01:37:25.458Z,1030.21
2023-01-25T01:38:25.463Z,1030.20
2023-01-25T01:39:25.432Z,1030.19
2023-01-25T01:40:25.424Z,1030.18
2023-01-25T01:41:25.415Z,1030.19
2023-01-25T01:42:25.403Z,1030.23
2023-01-25T01:43:25.413Z,1030.21
2023-01-25T01:44:25.385Z,1030.21
2023-01-25T01:45:25.368Z,1030.22
2023-01-25T01:46:25.375Z,1030.21
2023-01-25T01:47:25.345Z,1030.20
2023-01-25T01:48:25.346Z,1030.24
2023-01-25T01:49:25.326Z,1030.23
2023-01-25T01:50:25.328Z,1030.23
2023-01-25T01:51:25.311Z,1030.28
2023-01-25T01:52:25.296Z,1030.25
2023-01-25T01:53:25.309Z,1030.23
2023-01-25T01:54:25.276Z,1030.27
2023-01-25T01:55:25.288Z,1030.24
2023-01-25T01:56:25.296Z,1030.26
2023-01-25T01:57:25.298Z,1030.22
2023-01-25T01:58:25.246Z,1030.21
2023-01-25T01:59:25.247Z,1030.23
2023-01-25T02:00:25.208Z,1030.20
2023-01-25T02:01:25.342Z,1030.17
2023-01-25T02:02:25.249Z,1030.21
2023-01-25T02:03:25.186Z,1030.12
2023-01-25T02:04:25.196Z,1030.15
2023-01-25T02:05:25.166Z,1030.14
2023-01-25T02:06:25.137Z,1030.13
2023-01-25T02:07:25.160Z,1030.12
2023-01-25T02:08:25.148Z,1030.10
2023-01-25T02:09:25.114Z,1030.09
2023-01-25T02:10:25.107Z,1030.10
2023-01-25T02:11:25.099Z,1030.10
2023-01-25T02:12:25.077Z,1030.10
2023-01-25T02:13:25.091Z,1030.08
2023-01-25T02:14:25.069Z,1030.10
2023-01-25T02:15:25.057Z,1030.10
2023-01-25T02:16:25.039Z,1030.10
2023-01-25T02:17:25.048Z,1030.10
2023-01-25T02:18:25.037Z,1030.12
2023-01-25T02:19:25.026Z,1030.11
2023-01-25T02:20:25.009Z,1030.14
2023-01-25T02:21:25.024Z,1030.12
2023-01-25T02:22:24.977Z,1030.12
2023-01-25T02:23:24.988Z,1030.15
2023-01-25T02:24:25.018Z,1030.14
2023-01-25T02:25:24.960Z,1030.12
2023-01-25T02:26:24.957Z,1030.12
2023-01-25T02:27:24.933Z,1030.12
2023-01-25T02:28:24.929Z,1030.12
2023-01-25T02:29:24.911Z,1030.11
2023-01-25T02:30:24.897Z,1030.12
2023-01-25T02:31:24.984Z,1030.12
2023-01-25T02:32:24.883Z,1030.11
2023-01-25T02:33:24.883Z,1030.09
2023-01-25T02:34:24.849Z,1030.07
2023-01-25T02:35:24.853Z,1030.05
2023-01-25T02:36:24.841Z,1030.06
2023-01-25T02:37:24.840Z,1030.01
2023-01-25T02:38:24.832Z,1030.01
2023-01-25T02:39:24.799Z,1030.01
2023-01-25T02:40:24.803Z,1030.01
2023-01-25T02:41:24.780Z,1029.99
2023-01-25T02:42:24.764Z,1030.03
2023-01-25T02:43:24.798Z,1029.99
2023-01-25T02:44:24.739Z,1029.98
2023-01-25T02:45:24.739Z,1029.98
2023-01-25T02:46:24.766Z,1030.00
2023-01-25T02:47:24.717Z,1029.98
2023-01-25T02:48:24.709Z,1029.97
2023-01-25T02:49:24.692Z,1030.00
2023-01-25T02:50:24.681Z,1030.01
2023-01-25T02:51:24.681Z,1029.96
2023-01-25T02:52:24.658Z,1029.99
2023-01-25T02:53:24.698Z,1029.97
2023-01-25T02:54:24.640Z,1029.99
2023-01-25T02:55:24.640Z,1029.95
2023-01-25T02:56:24.619Z,1029.98
2023-01-25T02:57:24.628Z,1029.97
2023-01-25T02:58:24.611Z,1029.96
2023-01-25T02:59:24.590Z,1029.94
2023-01-25T03:00:24.570Z,1029.95
2023-01-25T03:01:24.631Z,1029.93
2023-01-25T03:02:24.614Z,1029.93
2023-01-25T03:03:24.553Z,1029.92
2023-01-25T03:04:24.542Z,1029.92
2023-01-25T03:05:24.525Z,1029.92
2023-01-25T03:06:24.514Z,1029.90
2023-01-25T03:07:24.507Z,1029.90
2023-01-25T03:08:24.520Z,1029.90
2023-01-25T03:09:24.485Z,1029.92
2023-01-25T03:10:24.489Z,1029.92
2023-01-25T03:11:24.463Z,1029.91
2023-01-25T03:12:24.443Z,1029.92
2023-01-25T03:13:24.450Z,1029.91
2023-01-25T03:14:24.436Z,1029.94
2023-01-25T03:15:24.420Z,1029.90
2023-01-25T03:16:24.452Z,1029.91
2023-01-25T03:17:24.410Z,1029.91
2023-01-25T03:18:24.400Z,1029.90
2023-01-25T03:19:24.381Z,1029.88
2023-01-25T03:20:24.369Z,1029.84
2023-01-25T03:21:24.381Z,1029.86
2023-01-25T03:22:24.342Z,1029.90
2023-01-25T03:23:24.352Z,1029.85
2023-01-25T03:24:24.382Z,1029.84
2023-01-25T03:25:24.321Z,1029.82
2023-01-25T03:26:24.309Z,1029.87
2023-01-25T03:27:24.297Z,1029.85
2023-01-25T03:28:24.292Z,1029.85
2023-01-25T03:29:24.295Z,1029.88
2023-01-25T03:30:24.253Z,1029.87
2023-01-25T03:31:24.359Z,1029.85
2023-01-25T03:32:24.294Z,1029.89
2023-01-25T03:33:24.242Z,1029.87
2023-01-25T03:34:24.213Z,1029.89
2023-01-25T03:35:24.224Z,1029.85
2023-01-25T03:36:24.268Z,1029.87
2023-01-25T03:37:24.192Z,1029.90
2023-01-25T03:38:24.212Z,1029.90
2023-01-25T03:39:24.176Z,1029.91
2023-01-25T03:40:24.153Z,1029.92
2023-01-25T03:41:24.157Z,1029.89
2023-01-25T03:42:24.130Z,1029.87
2023-01-25T03:43:24.133Z,1029.85
2023-01-25T03:44:24.204Z,1029.84
2023-01-25T03:45:24.113Z,1029.83
2023-01-25T03:46:24.093Z,1029.79
2023-01-25T03:47:24.087Z,1029.80
2023-01-25T03:48:24.080Z,1029.78
2023-01-25T03:49:24.056Z,1029.79
2023-01-25T03:50:24.054Z,1029.78
2023-01-25T03:51:24.095Z,1029.77
2023-01-25T03:52:24.033Z,1029.81
2023-01-25T03:53:24.032Z,1029.76
2023-01-25T03:54:24.012Z,1029.78
2023-01-25T03:55:23.996Z,1029.80
2023-01-25T03:56:24.956Z,1029.78
2023-01-25T03:57:23.975Z,1029.80
2023-01-25T03:58:23.982Z,1029.76
2023-01-25T03:59:23.957Z,1029.78
2023-01-25T04:00:23.943Z,1029.79
2023-01-25T04:01:24.071Z,1029.80
2023-01-25T04:02:23.986Z,1029.78
2023-01-25T04:03:23.914Z,1029.76
2023-01-25T04:04:23.925Z,1029.73
2023-01-25T04:05:23.903Z,1029.72
2023-01-25T04:06:23.876Z,1029.73
2023-01-25T04:07:23.868Z,1029.72
2023-01-25T04:08:23.875Z,1029.71
2023-01-25T04:09:23.844Z,1029.71
2023-01-25T04:10:23.845Z,1029.70
2023-01-25T04:11:23.824Z,1029.68
2023-01-25T04:12:23.814Z,1029.65
2023-01-25T04:13:23.814Z,1029.61
2023-01-25T04:14:42.487Z,1029.68
2023-01-25T04:15:24.786Z,1029.61
2023-01-25T04:16:23.872Z,1029.56
2023-01-25T04:17:23.762Z,1029.55
2023-01-25T04:18:23.768Z,1029.52
2023-01-25T04:19:23.750Z,1029.50
2023-01-25T04:20:23.738Z,1029.50
2023-01-25T04:21:23.716Z,1029.48
2023-01-25T04:22:23.718Z,1029.45
2023-01-25T04:23:23.707Z,1029.45
2023-01-25T04:24:23.725Z,1029.44
2023-01-25T04:25:23.683Z,1029.41
2023-01-25T04:26:23.674Z,1029.39
2023-01-25T04:27:23.658Z,1029.37
2023-01-25T04:28:23.666Z,1029.36
2023-01-25T04:29:28.782Z,1029.34
2023-01-25T04:30:24.626Z,1029.34
2023-01-25T04:31:23.780Z,1029.33
2023-01-25T04:32:23.747Z,1029.28
2023-01-25T04:33:23.600Z,1029.32
2023-01-25T04:34:23.586Z,1029.34
2023-01-25T04:35:23.575Z,1029.31
2023-01-25T04:36:23.575Z,1029.30
2023-01-25T04:37:23.568Z,1029.28
2023-01-25T04:38:23.562Z,1029.26
2023-01-25T04:39:23.528Z,1029.27
2023-01-25T04:40:23.527Z,1029.23
2023-01-25T04:41:23.524Z,1029.25
2023-01-25T04:42:23.504Z,1029.23
2023-01-25T04:43:23.495Z,1029.22
2023-01-25T04:44:23.487Z,1029.24
2023-01-25T04:45:23.480Z,1029.20
2023-01-25T04:46:23.472Z,1029.23
2023-01-25T04:47:23.459Z,1029.21
2023-01-25T04:48:23.446Z,1029.18
2023-01-25T04:49:23.426Z,1029.19
2023-01-25T04:50:23.424Z,1029.17
2023-01-25T04:51:23.416Z,1029.15
2023-01-25T04:52:23.397Z,1029.18
2023-01-25T04:53:23.404Z,1029.15
2023-01-25T04:54:23.376Z,1029.12
2023-01-25T04:55:23.357Z,1029.14
2023-01-25T04:56:23.357Z,1029.15
2023-01-25T04:57:23.351Z,1029.12
2023-01-25T04:58:23.345Z,1029.13
2023-01-25T04:59:23.321Z,1029.16
2023-01-25T05:00:23.307Z,1029.13
2023-01-25T05:01:23.303Z,1029.14
2023-01-25T05:02:23.356Z,1029.14
2023-01-25T05:03:23.293Z,1029.09
2023-01-25T05:04:23.272Z,1029.09
2023-01-25T05:05:23.289Z,1029.07
2023-01-25T05:06:23.249Z,1029.04
2023-01-25T05:07:23.239Z,1029.05
2023-01-25T05:08:23.239Z,1029.04
2023-01-25T05:09:23.229Z,1029.04
2023-01-25T05:10:23.201Z,1029.08
2023-01-25T05:11:23.201Z,1029.08
2023-01-25T05:12:23.179Z,1029.05
2023-01-25T05:13:23.182Z,1029.09
2023-01-25T05:14:23.170Z,1029.07
2023-01-25T05:15:23.147Z,1029.08
2023-01-25T05:16:23.171Z,1029.12
2023-01-25T05:17:23.129Z,1029.12
2023-01-25T05:18:23.131Z,1029.08
2023-01-25T05:19:23.109Z,1029.11
2023-01-25T05:20:23.110Z,1029.09
2023-01-25T05:21:23.088Z,1029.05
2023-01-25T05:22:23.091Z,1029.08
2023-01-25T05:23:23.070Z,1029.05
2023-01-25T05:24:23.142Z,1029.04
2023-01-25T05:25:23.050Z,1029.01
2023-01-25T05:26:23.040Z,1029.03
2023-01-25T05:27:23.024Z,1028.99
2023-01-25T05:28:23.021Z,1028.98
2023-01-25T05:29:22.999Z,1028.98
2023-01-25T05:30:22.999Z,1028.97
2023-01-25T05:31:23.079Z,1028.94
2023-01-25T05:32:22.978Z,1028.94
2023-01-25T05:33:22.971Z,1028.97
2023-01-25T05:34:22.952Z,1028.97
2023-01-25T05:35:22.944Z,1028.98
2023-01-25T05:36:22.928Z,1028.98
2023-01-25T05:37:22.920Z,1028.97
2023-01-25T05:38:23.067Z,1028.94
2023-01-25T05:39:22.936Z,1028.95
2023-01-25T05:40:22.889Z,1028.93
2023-01-25T05:41:22.872Z,1028.96
2023-01-25T05:42:22.861Z,1028.92
2023-01-25T05:43:22.870Z,1028.96
2023-01-25T05:44:22.872Z,1028.93
2023-01-25T05:45:22.836Z,1028.90
2023-01-25T05:46:22.878Z,1028.94
2023-01-25T05:47:22.816Z,1028.89
2023-01-25T05:48:22.827Z,1028.86
2023-01-25T05:49:22.797Z,1028.86
2023-01-25T05:50:22.783Z,1028.84
2023-01-25T05:51:22.768Z,1028.85
2023-01-25T05:52:22.767Z,1028.90
2023-01-25T05:53:22.762Z,1028.88
2023-01-25T05:54:22.742Z,1028.87
2023-01-25T05:55:22.749Z,1028.85
2023-01-25T05:56:22.755Z,1028.82
2023-01-25T05:57:22.711Z,1028.80
2023-01-25T05:58:22.722Z,1028.80
2023-01-25T05:59:22.683Z,1028.76
2023-01-25T06:00:22.694Z,1028.86
2023-01-25T06:01:22.665Z,1028.84
2023-01-25T06:02:22.745Z,1028.87
2023-01-25T06:03:22.765Z,1028.84
2023-01-25T06:04:22.635Z,1028.86
2023-01-25T06:05:22.622Z,1028.85
2023-01-25T06:06:22.614Z,1028.85
2023-01-25T06:07:24.666Z,1028.82
2023-01-25T06:08:22.621Z,1028.86
2023-01-25T06:09:22.568Z,1028.82
2023-01-25T06:10:22.572Z,1028.81
2023-01-25T06:11:22.578Z,1028.81
2023-01-25T06:12:22.543Z,1028.83
2023-01-25T06:13:22.551Z,1028.82
2023-01-25T06:14:22.529Z,1028.78
2023-01-25T06:15:22.598Z,1028.83
2023-01-25T06:16:22.501Z,1028.80
2023-01-25T06:17:22.502Z,1028.78
2023-01-25T06:18:22.503Z,1028.81
2023-01-25T06:19:22.476Z,1028.78
2023-01-25T06:20:22.472Z,1028.75
2023-01-25T06:21:22.452Z,1028.75
2023-01-25T06:22:22.445Z,1028.75
2023-01-25T06:23:22.443Z,1028.75
2023-01-25T06:24:22.517Z,1028.73
2023-01-25T06:25:22.452Z,1028.73
2023-01-25T06:26:22.442Z,1028.72
2023-01-25T06:27:22.395Z,1028.76
2023-01-25T06:28:22.461Z,1028.71
2023-01-25T06:29:22.386Z,1028.77
2023-01-25T06:30:22.353Z,1028.70
2023-01-25T06:31:22.379Z,1028.72
2023-01-25T06:32:22.368Z,1028.73
2023-01-25T06:33:22.332Z,1028.71
2023-01-25T06:34:22.313Z,1028.69
2023-01-25T06:35:22.361Z,1028.68
2023-01-25T06:36:22.296Z,1028.65
2023-01-25T06:37:22.311Z,1028.65
2023-01-25T06:38:22.296Z,1028.64
2023-01-25T06:39:22.261Z,1028.63
2023-01-25T06:40:22.258Z,1028.64
2023-01-25T06:41:22.253Z,1028.64
2023-01-25T06:42:22.224Z,1028.64
2023-01-25T06:43:22.236Z,1028.66
2023-01-25T06:44:22.202Z,1028.65
2023-01-25T06:45:22.203Z,1028.63
2023-01-25T06:46:22.283Z,1028.61
2023-01-25T06:47:22.194Z,1028.62
2023-01-25T06:48:22.199Z,1028.62
2023-01-25T06:49:22.154Z,1028.65
2023-01-25T06:50:22.153Z,1028.63
2023-01-25T06:51:22.136Z,1028.63
2023-01-25T06:52:22.144Z,1028.63
2023-01-25T06:53:22.139Z,1028.64
2023-01-25T06:54:22.110Z,1028.65
2023-01-25T06:55:22.144Z,1028.65
2023-01-25T06:56:22.121Z,1028.62
2023-01-25T06:57:22.072Z,1028.64
2023-01-25T06:58:22.074Z,1028.62
2023-01-25T06:59:22.067Z,1028.62
2023-01-25T07:00:22.045Z,1028.62
2023-01-25T07:01:22.158Z,1028.63
2023-01-25T07:02:22.076Z,1028.64
2023-01-25T07:03:22.027Z,1028.64
2023-01-25T07:04:22.005Z,1028.68
2023-01-25T07:05:21.984Z,1028.68
2023-01-25T07:06:21.996Z,1028.70
2023-01-25T07:07:21.964Z,1028.66
2023-01-25T07:08:21.973Z,1028.71
2023-01-25T07:09:21.943Z,1028.71
2023-01-25T07:10:21.952Z,1028.73
2023-01-25T07:11:21.925Z,1028.73
2023-01-25T07:12:21.913Z,1028.74
2023-01-25T07:13:21.918Z,1028.74
2023-01-25T07:14:21.898Z,1028.75
2023-01-25T07:15:21.874Z,1028.77
2023-01-25T07:16:21.907Z,1028.81
2023-01-25T07:17:21.865Z,1028.83
2023-01-25T07:18:21.868Z,1028.78
2023-01-25T07:19:21.836Z,1028.80
2023-01-25T07:20:21.833Z,1028.80
2023-01-25T07:21:21.819Z,1028.76
2023-01-25T07:22:21.878Z,1028.79
2023-01-25T07:23:21.816Z,1028.75
2023-01-25T07:24:21.873Z,1028.79
2023-01-25T07:25:21.796Z,1028.74
2023-01-25T07:26:21.783Z,1028.74
2023-01-25T07:27:21.754Z,1028.73
2023-01-25T07:28:21.845Z,1028.74
2023-01-25T07:29:21.737Z,1028.71
2023-01-25T07:30:21.735Z,1028.69
2023-01-25T07:31:21.761Z,1028.71
2023-01-25T07:32:21.706Z,1028.71
2023-01-25T07:33:21.702Z,1028.75
2023-01-25T07:34:21.710Z,1028.78
2023-01-25T07:35:21.676Z,1028.77
2023-01-25T07:36:21.686Z,1028.81
2023-01-25T07:37:21.668Z,1028.77
2023-01-25T07:38:21.660Z,1028.79
2023-01-25T07:39:21.663Z,1028.82
2023-01-25T07:40:21.614Z,1028.81
2023-01-25T07:41:21.644Z,1028.80
2023-01-25T07:42:21.599Z,1028.79
2023-01-25T07:43:21.612Z,1028.78
2023-01-25T07:44:21.611Z,1028.79
2023-01-25T07:45:21.555Z,1028.75
2023-01-25T07:46:21.565Z,1028.74
2023-01-25T07:47:21.579Z,1028.71
2023-01-25T07:48:21.555Z,1028.71
2023-01-25T07:49:21.567Z,1028.70
2023-01-25T07:50:21.524Z,1028.69
2023-01-25T07:51:21.496Z,1028.68
2023-01-25T07:52:21.496Z,1028.67
2023-01-25T07:53:21.486Z,1028.67
2023-01-25T07:54:21.466Z,1028.66
2023-01-25T07:55:21.467Z,1028.67
2023-01-25T07:56:21.458Z,1028.67
2023-01-25T07:57:21.436Z,1028.69
2023-01-25T07:58:21.451Z,1028.70
2023-01-25T07:59:21.427Z,1028.68
2023-01-25T08:00:23.288Z,1028.71
2023-01-25T08:01:21.400Z,1028.72
2023-01-25T08:02:21.386Z,1028.74
2023-01-25T08:03:21.415Z,1028.72
2023-01-25T08:04:21.377Z,1028.75
2023-01-25T08:05:21.376Z,1028.76
2023-01-25T08:06:21.348Z,1028.76
2023-01-25T08:07:21.335Z,1028.77
2023-01-25T08:08:21.337Z,1028.77
2023-01-25T08:09:21.319Z,1028.78
2023-01-25T08:10:21.308Z,1028.75
2023-01-25T08:11:21.292Z,1028.75
2023-01-25T08:12:21.275Z,1028.75
2023-01-25T08:13:21.287Z,1028.76
2023-01-25T08:14:21.261Z,1028.76
2023-01-25T08:15:21.250Z,1028.75
2023-01-25T08:16:21.236Z,1028.74
2023-01-25T08:17:21.227Z,1028.74
2023-01-25T08:18:21.227Z,1028.76
2023-01-25T08:19:21.209Z,1028.72
2023-01-25T08:20:21.200Z,1028.73
2023-01-25T08:21:21.182Z,1028.73
2023-01-25T08:22:21.176Z,1028.71
2023-01-25T08:23:21.175Z,1028.70
2023-01-25T08:24:21.768Z,1028.69
2023-01-25T08:25:21.142Z,1028.70
2023-01-25T08:26:21.169Z,1028.70
2023-01-25T08:27:21.122Z,1028.65
2023-01-25T08:28:21.271Z,1028.65
2023-01-25T08:29:21.101Z,1028.69
2023-01-25T08:30:21.106Z,1028.67
2023-01-25T08:31:21.102Z,1028.70
2023-01-25T08:32:21.068Z,1028.69
2023-01-25T08:33:21.058Z,1028.71
2023-01-25T08:34:21.048Z,1028.67
2023-01-25T08:35:21.039Z,1028.68
2023-01-25T08:36:21.030Z,1028.71
2023-01-25T08:37:21.023Z,1028.69
2023-01-25T08:38:21.028Z,1028.71
2023-01-25T08:39:21.012Z,1028.69
2023-01-25T08:40:21.029Z,1028.66
2023-01-25T08:41:20.991Z,1028.64
2023-01-25T08:42:21.597Z,1028.66
2023-01-25T08:43:21.012Z,1028.64
2023-01-25T08:44:20.958Z,1028.62
2023-01-25T08:45:21.061Z,1028.59
2023-01-25T08:46:20.929Z,1028.57
2023-01-25T08:47:20.913Z,1028.56
2023-01-25T08:48:20.920Z,1028.52
2023-01-25T08:49:20.888Z,1028.56
2023-01-25T08:50:20.878Z,1028.57
2023-01-25T08:51:20.875Z,1028.53
2023-01-25T08:52:21.950Z,1028.57
2023-01-25T08:53:20.876Z,1028.58
2023-01-25T08:54:20.838Z,1028.54
2023-01-25T08:55:20.827Z,1028.50
2023-01-25T08:56:20.840Z,1028.53
2023-01-25T08:57:20.800Z,1028.53
2023-01-25T08:58:20.840Z,1028.52
2023-01-25T08:59:20.793Z,1028.50
2023-01-25T09:00:20.797Z,1028.55
2023-01-25T09:01:20.791Z,1028.52
2023-01-25T09:02:20.749Z,1028.51
2023-01-25T09:03:20.793Z,1028.52
2023-01-25T09:04:20.739Z,1028.48
2023-01-25T09:05:20.723Z,1028.50
2023-01-25T09:06:20.710Z,1028.52
2023-01-25T09:07:20.705Z,1028.53
2023-01-25T09:08:20.712Z,1028.51
2023-01-25T09:09:20.685Z,1028.52
2023-01-25T09:10:20.847Z,1028.51
2023-01-25T09:11:20.688Z,1028.53
2023-01-25T09:12:20.649Z,1028.48
2023-01-25T09:13:20.647Z,1028.49
2023-01-25T09:14:20.655Z,1028.46
2023-01-25T09:15:20.615Z,1028.48
2023-01-25T09:16:20.627Z,1028.45
2023-01-25T09:17:20.606Z,1028.43
2023-01-25T09:18:20.587Z,1028.44
2023-01-25T09:19:20.586Z,1028.40
2023-01-25T09:20:20.649Z,1028.41
2023-01-25T09:21:20.555Z,1028.42
2023-01-25T09:22:20.552Z,1028.39
2023-01-25T09:23:20.536Z,1028.39
2023-01-25T09:24:20.570Z,1028.37
2023-01-25T09:25:20.578Z,1028.37
2023-01-25T09:26:20.555Z,1028.40
2023-01-25T09:27:20.489Z,1028.40
2023-01-25T09:28:20.480Z,1028.39
2023-01-25T09:29:20.477Z,1028.38
2023-01-25T09:30:21.924Z,1028.40
2023-01-25T09:31:23.198Z,1028.38
2023-01-25T09:32:20.551Z,1028.36
2023-01-25T09:33:20.433Z,1028.33
2023-01-25T09:34:20.429Z,1028.33
2023-01-25T09:35:20.402Z,1028.33
2023-01-25T09:36:20.402Z,1028.30
2023-01-25T09:37:20.392Z,1028.30
2023-01-25T09:38:20.370Z,1028.30
2023-01-25T09:39:20.370Z,1028.29
2023-01-25T09:40:20.361Z,1028.31
2023-01-25T09:41:20.345Z,1028.29
2023-01-25T09:42:21.364Z,1028.30
2023-01-25T09:43:20.321Z,1028.31
2023-01-25T09:44:20.322Z,1028.31
2023-01-25T09:45:20.293Z,1028.30
2023-01-25T09:46:20.354Z,1028.30
2023-01-25T09:47:20.284Z,1028.29
2023-01-25T09:48:20.260Z,1028.26
2023-01-25T09:49:20.283Z,1028.27
2023-01-25T09:50:20.253Z,1028.28
2023-01-25T09:51:20.243Z,1028.27
2023-01-25T09:52:20.239Z,1028.23
2023-01-25T09:53:20.223Z,1028.15
2023-01-25T09:54:20.204Z,1028.15
2023-01-25T09:55:20.214Z,1028.16
2023-01-25T09:56:20.185Z,1028.11
2023-01-25T09:57:20.165Z,1028.09
2023-01-25T09:58:20.166Z,1028.08
2023-01-25T09:59:20.163Z,1028.07
2023-01-25T10:00:20.155Z,1028.10
2023-01-25T10:01:32.923Z,1028.07
2023-01-25T10:02:21.218Z,1028.06
2023-01-25T10:03:20.109Z,1028.07
2023-01-25T10:04:20.126Z,1028.09
2023-01-25T10:05:20.083Z,1028.08
2023-01-25T10:06:20.079Z,1028.05
2023-01-25T10:07:20.067Z,1028.04
2023-01-25T10:08:20.057Z,1028.01
2023-01-25T10:09:20.059Z,1028.00
2023-01-25T10:10:20.063Z,1027.98
2023-01-25T10:11:20.033Z,1027.99
2023-01-25T10:12:20.004Z,1027.92
2023-01-25T10:13:20.015Z,1027.87
2023-01-25T10:14:20.005Z,1027.89
2023-01-25T10:15:20.020Z,1027.82
2023-01-25T10:16:25.584Z,1027.82
2023-01-25T10:17:20.967Z,1027.87
2023-01-25T10:18:19.948Z,1027.87
2023-01-25T10:19:19.957Z,1027.89
2023-01-25T10:20:19.925Z,1027.86
2023-01-25T10:21:19.922Z,1027.85
2023-01-25T10:22:19.915Z,1027.88
2023-01-25T10:23:19.894Z,1027.87
2023-01-25T10:24:19.961Z,1027.83
2023-01-25T10:25:19.883Z,1027.86
2023-01-25T10:26:19.855Z,1027.83
2023-01-25T10:27:19.845Z,1027.78
2023-01-25T10:28:19.845Z,1027.79
2023-01-25T10:29:19.844Z,1027.81
2023-01-25T10:30:19.825Z,1027.75
2023-01-25T10:31:19.963Z,1027.70
2023-01-25T10:32:19.809Z,1027.70
2023-01-25T10:33:19.806Z,1027.70
2023-01-25T10:34:19.810Z,1027.70
2023-01-25T10:35:34.023Z,1027.70
2023-01-25T10:36:20.756Z,1027.66
2023-01-25T10:37:19.766Z,1027.63
2023-01-25T10:38:19.738Z,1027.60
2023-01-25T10:39:19.741Z,1027.62
2023-01-25T10:40:21.865Z,1027.60
2023-01-25T10:41:19.703Z,1027.60
2023-01-25T10:42:19.734Z,1027.63
2023-01-25T10:43:19.741Z,1027.59
2023-01-25T10:44:19.699Z,1027.57
2023-01-25T10:45:19.656Z,1027.53
2023-01-25T10:46:19.672Z,1027.53
2023-01-25T10:47:19.639Z,1027.53
2023-01-25T10:48:19.672Z,1027.49
2023-01-25T10:49:19.627Z,1027.48
2023-01-25T10:50:19.606Z,1027.44
2023-01-25T10:51:19.586Z,1027.40
2023-01-25T10:52:19.604Z,1027.39
2023-01-25T10:53:19.566Z,1027.36
2023-01-25T10:54:19.580Z,1027.35
2023-01-25T10:55:19.562Z,1027.33
2023-01-25T10:56:19.545Z,1027.30
2023-01-25T10:57:19.527Z,1027.29
2023-01-25T10:58:19.548Z,1027.26
2023-01-25T10:59:19.550Z,1027.32
2023-01-25T11:00:19.512Z,1027.24
2023-01-25T11:01:19.527Z,1027.29
2023-01-25T11:02:19.494Z,1027.24
2023-01-25T11:03:19.459Z,1027.24
2023-01-25T11:04:19.457Z,1027.25
2023-01-25T11:05:19.466Z,1027.30
2023-01-25T11:06:19.437Z,1027.26
2023-01-25T11:07:19.427Z,1027.27
2023-01-25T11:08:19.477Z,1027.25
2023-01-25T11:09:19.399Z,1027.24
2023-01-25T11:10:19.407Z,1027.27
2023-01-25T11:11:19.389Z,1027.23
2023-01-25T11:12:19.378Z,1027.22
2023-01-25T11:13:19.397Z,1027.24
2023-01-25T11:14:19.378Z,1027.21
2023-01-25T11:15:19.353Z,1027.18
2023-01-25T11:16:19.360Z,1027.21
2023-01-25T11:17:19.320Z,1027.19
2023-01-25T11:18:19.307Z,1027.17
2023-01-25T11:19:19.312Z,1027.19
2023-01-25T11:20:19.334Z,1027.20
2023-01-25T11:21:19.280Z,1027.21
2023-01-25T11:22:19.294Z,1027.19
2023-01-25T11:23:19.268Z,1027.17
2023-01-25T11:24:19.331Z,1027.16
2023-01-25T11:25:19.262Z,1027.14
2023-01-25T11:26:19.239Z,1027.12
2023-01-25T11:27:19.247Z,1027.12
2023-01-25T11:28:19.215Z,1027.09
2023-01-25T11:29:19.203Z,1027.03
2023-01-25T11:30:19.233Z,1027.02
2023-01-25T11:31:19.264Z,1027.05
2023-01-25T11:32:19.171Z,1027.06
2023-01-25T11:33:19.150Z,1027.02
2023-01-25T11:34:19.149Z,1027.04
2023-01-25T11:35:19.149Z,1027.05
2023-01-25T11:36:19.139Z,1027.00
2023-01-25T11:37:19.110Z,1027.02
2023-01-25T11:38:19.102Z,1026.98
2023-01-25T11:39:19.106Z,1026.97
2023-01-25T11:40:19.110Z,1026.96
2023-01-25T11:41:19.070Z,1026.95
2023-01-25T11:42:19.070Z,1026.95
2023-01-25T11:43:19.068Z,1026.93
2023-01-25T11:44:19.041Z,1026.89
2023-01-25T11:45:19.049Z,1026.93
2023-01-25T11:46:19.051Z,1026.83
2023-01-25T11:47:19.005Z,1026.85
2023-01-25T11:48:18.999Z,1026.81
2023-01-25T11:49:18.989Z,1026.73
2023-01-25T11:50:18.999Z,1026.72
2023-01-25T11:51:18.961Z,1026.69
2023-01-25T11:52:18.959Z,1026.63
2023-01-25T11:53:18.958Z,1026.61
2023-01-25T11:54:18.934Z,1026.59
2023-01-25T11:55:18.961Z,1026.60
2023-01-25T11:56:18.930Z,1026.57
2023-01-25T11:57:18.891Z,1026.55
2023-01-25T11:58:18.891Z,1026.54
2023-01-25T11:59:18.891Z,1026.49
2023-01-25T12:00:18.932Z,1026.51
2023-01-25T12:01:18.964Z,1026.52
2023-01-25T12:02:18.863Z,1026.49
2023-01-25T12:03:18.961Z,1026.53
2023-01-25T12:04:18.873Z,1026.44
2023-01-25T12:05:21.919Z,1026.42